Time;durP1;ratioP1;P1;durP2;ratioP2;P2;SDS_P1;SDS_P2;PMS_P1;PMS_P2;Temp;Humidity;BMP_temperature;BMP_pressure;BME280_temperature;BME280_humidity;BME280_pressure;Samples;Min_cycle;Max_cycle;Signal;HPM_P1;HPM_P2
2023/12/18 17:38:01;;;;;;;;;8.67;8.33;;;;;20.12;41.31;103035.28;5226599;23;45578;-74
2023/12/18 17:40:27;;;;;;;;;7.00;7.00;;;;;20.16;41.77;103031.50;4917655;28;46125;-72
2023/12/18 17:42:52;;;;;;;;;5.00;5.00;;;;;20.16;41.96;103019.13;4920006;28;45745;-75
2023/12/18 17:45:18;;;;;;;;;7.25;7.25;;;;;20.15;41.90;103001.56;4920609;28;45374;-75
2023/12/18 17:47:44;;;;;;;;;6.25;6.25;;;;;20.18;41.70;103001.34;4919685;28;45361;-75
2023/12/18 17:50:09;;;;;;;;;7.00;7.00;;;;;20.19;41.95;103002.19;4919232;28;60679;-73
2023/12/18 17:52:35;;;;;;;;;7.50;7.50;;;;;20.20;42.06;102995.06;4920009;28;45280;-74
2023/12/18 17:55:00;;;;;;;;;10.00;7.00;;;;;20.21;41.98;102996.78;4919559;28;45367;-75
2023/12/18 17:57:29;;;;;;;;;8.33;8.33;;;;;20.22;41.92;103003.75;4919786;28;45380;-75
2023/12/18 17:59:58;;;;;;;;;6.00;6.00;;;;;20.20;41.69;103011.78;4919680;28;46166;-75
2023/12/18 18:02:25;;;;;;;;;6.00;5.50;;;;;20.22;42.23;103009.88;4919218;28;45421;-73
2023/12/18 18:04:51;;;;;;;;;6.75;6.50;;;;;20.16;42.24;102991.84;4918605;28;45347;-72
2023/12/18 18:07:17;;;;;;;;;8.00;7.00;;;;;20.23;42.06;102995.69;4919513;28;45291;-72
2023/12/18 18:09:43;;;;;;;;;8.25;7.00;;;;;20.25;41.88;102993.78;4919009;28;50828;-76
2023/12/18 18:12:09;;;;;;;;;8.00;7.25;;;;;20.18;41.99;102984.63;4919531;28;45437;-73
2023/12/18 18:14:34;;;;;;;;;7.00;5.75;;;;;20.17;41.80;102991.72;4900535;28;45462;-76
2023/12/18 18:16:59;;;;;;;;;6.75;6.75;;;;;20.27;41.76;103004.25;4900539;29;45673;-75
2023/12/18 18:19:24;;;;;;;;;6.00;6.00;;;;;20.23;42.05;102990.41;4900442;28;45884;-75
2023/12/18 18:21:50;;;;;;;;;7.50;7.50;;;;;20.21;42.14;102975.63;4900398;29;45331;-76
2023/12/18 18:24:15;;;;;;;;;8.00;7.00;;;;;20.28;42.00;102990.91;4900279;29;45368;-72
2023/12/18 18:26:40;;;;;;;;;7.50;6.75;;;;;20.28;42.07;102985.63;4900310;29;45376;-72
2023/12/18 18:29:06;;;;;;;;;7.25;6.50;;;;;20.29;41.91;102986.47;4900268;28;46059;-75
2023/12/18 18:31:31;;;;;;;;;8.67;6.33;;;;;20.25;41.73;102980.56;4899860;29;51743;-76
2023/12/18 18:33:59;;;;;;;;;8.00;7.25;;;;;20.28;41.91;102990.91;4900413;28;45378;-76
2023/12/18 18:36:30;;;;;;;;;7.75;7.25;;;;;20.25;42.00;102971.78;4899691;28;45390;-76
2023/12/18 18:38:57;;;;;;;;;7.25;5.75;;;;;20.31;42.03;102973.13;4899659;28;46248;-75
2023/12/18 18:41:23;;;;;;;;;7.25;5.00;;;;;20.29;42.18;102976.75;4916309;28;45312;-74
2023/12/18 18:43:49;;;;;;;;;7.00;5.00;;;;;20.31;42.07;102984.56;4905457;28;45297;-72
2023/12/18 18:46:15;;;;;;;;;8.00;6.67;;;;;20.32;42.13;102982.75;4900108;29;45324;-76
2023/12/18 18:48:41;;;;;;;;;10.75;8.00;;;;;20.31;42.16;102986.34;4899837;28;47058;-73
2023/12/18 18:51:07;;;;;;;;;9.25;8.25;;;;;20.19;42.21;102967.81;4899474;29;45283;-75
2023/12/18 18:53:34;;;;;;;;;6.50;6.50;;;;;20.24;41.84;102980.69;4898766;29;45413;-76
2023/12/18 18:56:05;;;;;;;;;10.00;7.00;;;;;20.32;41.93;103002.13;4900003;29;45393;-75
2023/12/18 18:58:31;;;;;;;;;5.50;5.25;;;;;20.32;42.24;103011.84;4899732;28;45333;-75
2023/12/18 19:00:56;;;;;;;;;6.50;6.50;;;;;20.31;42.31;103020.72;4899631;29;45316;-75
2023/12/18 19:03:21;;;;;;;;;8.00;8.00;;;;;20.28;41.81;103009.41;4899554;29;48578;-76
2023/12/18 19:05:47;;;;;;;;;7.00;5.50;;;;;20.33;42.15;103011.72;4899496;29;45526;-72
2023/12/18 19:08:12;;;;;;;;;7.25;7.25;;;;;20.33;42.22;103016.16;4913924;28;47322;-73
2023/12/18 19:10:38;;;;;;;;;9.50;7.50;;;;;20.34;42.07;103009.91;4913018;28;46024;-74
2023/12/18 19:13:03;;;;;;;;;9.00;7.50;;;;;20.34;41.97;103021.34;4918366;28;45434;-74
2023/12/18 19:15:29;;;;;;;;;8.00;6.50;;;;;20.35;42.25;103016.91;4902108;28;45465;-74
2023/12/18 19:17:54;;;;;;;;;9.00;7.25;;;;;20.35;42.12;103020.38;4899482;29;45957;-74
2023/12/18 19:20:19;;;;;;;;;8.33;7.67;;;;;20.33;41.90;103016.16;4909788;28;45407;-74
2023/12/18 19:22:45;;;;;;;;;8.00;7.00;;;;;20.36;41.96;103008.84;4918521;28;45406;-74
2023/12/18 19:25:10;;;;;;;;;8.50;7.00;;;;;20.35;42.47;103001.03;4918396;28;45379;-74
2023/12/18 19:27:36;;;;;;;;;8.00;7.50;;;;;20.36;42.28;103002.69;4917857;28;46927;-74
2023/12/18 19:30:01;;;;;;;;;9.00;7.75;;;;;20.36;42.28;103000.06;4917063;28;45443;-74
2023/12/18 19:32:27;;;;;;;;;7.75;7.50;;;;;20.36;42.05;102997.41;4918697;28;45405;-75
2023/12/18 19:34:52;;;;;;;;;8.50;7.25;;;;;20.35;41.77;102988.63;4917752;28;45451;-73
2023/12/18 19:37:18;;;;;;;;;5.25;5.25;;;;;20.35;41.85;102988.63;4917718;28;46029;-72
2023/12/18 19:39:43;;;;;;;;;12.00;7.25;;;;;20.35;41.97;102980.72;4918068;28;45292;-72
2023/12/18 19:42:09;;;;;;;;;7.25;6.25;;;;;20.35;42.28;102990.47;4917943;28;45678;-74
2023/12/18 19:44:34;;;;;;;;;4.75;4.75;;;;;20.34;42.04;102981.69;4917986;28;45349;-75
2023/12/18 19:46:59;;;;;;;;;6.67;6.67;;;;;20.34;42.20;102994.06;4916633;28;59986;-74
2023/12/18 19:49:25;;;;;;;;;8.25;8.25;;;;;20.28;42.01;102992.72;4917338;28;45530;-74
2023/12/18 19:51:50;;;;;;;;;7.00;7.00;;;;;20.34;42.25;102997.53;4917756;28;50074;-75
2023/12/18 19:54:15;;;;;;;;;6.50;6.50;;;;;20.35;42.28;102995.75;4916955;28;60396;-73
2023/12/18 19:56:41;;;;;;;;;8.00;7.67;;;;;20.35;42.15;102995.75;4917801;28;45276;-73
2023/12/18 19:59:07;;;;;;;;;6.25;5.50;;;;;20.33;42.12;102985.28;4918001;28;45232;-71
2023/12/18 20:01:32;;;;;;;;;7.25;7.00;;;;;20.29;42.20;102971.47;4916189;28;47504;-72
2023/12/18 20:03:57;;;;;;;;;9.25;8.25;;;;;20.27;42.10;102959.31;4932283;28;45502;-75
2023/12/18 20:06:24;;;;;;;;;8.00;7.25;;;;;20.34;42.10;102972.91;4917665;28;45389;-74
2023/12/18 20:08:49;;;;;;;;;6.50;6.50;;;;;20.33;42.28;102964.13;4917612;28;45424;-72
2023/12/18 20:11:18;;;;;;;;;8.33;8.33;;;;;20.34;42.35;102957.88;4917802;28;45405;-73
2023/12/18 20:13:47;;;;;;;;;6.25;6.25;;;;;20.28;42.25;102943.31;4917926;28;45372;-73
2023/12/18 20:16:12;;;;;;;;;8.50;7.25;;;;;20.34;42.40;102960.53;4917529;28;47369;-72
2023/12/18 20:18:37;;;;;;;;;7.75;7.00;;;;;20.25;42.06;102938.28;4931812;28;46126;-75
2023/12/18 20:21:03;;;;;;;;;9.00;8.25;;;;;20.34;42.24;102951.75;4917334;28;45391;-75
2023/12/18 20:23:28;;;;;;;;;8.75;7.75;;;;;20.36;42.20;102952.47;4917531;28;45428;-72
2023/12/18 20:25:53;;;;;;;;;6.00;5.50;;;;;20.35;42.46;102954.25;4917739;28;47225;-75
2023/12/18 20:28:19;;;;;;;;;5.25;5.25;;;;;20.32;42.49;102945.75;4917233;28;45380;-73
2023/12/18 20:30:44;;;;;;;;;7.00;7.00;;;;;20.36;42.12;102949.81;4917922;28;45471;-73
2023/12/18 20:33:09;;;;;;;;;9.25;8.00;;;;;20.30;42.36;102937.91;4917125;28;45391;-72
2023/12/18 20:35:35;;;;;;;;;7.00;6.25;;;;;20.35;42.48;102937.59;4917448;28;45283;-75
2023/12/18 20:38:00;;;;;;;;;6.75;5.25;;;;;20.31;42.23;102923.75;4917240;28;45443;-76
2023/12/18 20:40:26;;;;;;;;;7.75;7.75;;;;;20.36;42.53;102932.16;4917614;28;45316;-75
2023/12/18 20:42:52;;;;;;;;;8.25;7.75;;;;;20.36;42.30;102928.69;4917209;28;45356;-74
2023/12/18 20:45:17;;;;;;;;;7.50;7.50;;;;;20.31;42.50;102914.97;4917427;28;45466;-74
2023/12/18 20:47:43;;;;;;;;;8.00;8.00;;;;;20.29;42.54;102904.53;4916893;28;45375;-71
2023/12/18 20:50:08;;;;;;;;;7.25;7.25;;;;;20.29;42.46;102908.00;4917624;28;45284;-74
2023/12/18 20:52:34;;;;;;;;;8.00;7.00;;;;;20.36;42.62;102910.16;4916158;28;45206;-74
2023/12/18 20:55:02;;;;;;;;;7.25;6.75;;;;;20.29;42.59;102897.44;4917126;28;46128;-74
2023/12/18 20:57:28;;;;;;;;;7.50;7.50;;;;;20.37;42.36;102899.50;4917236;28;45358;-73
2023/12/18 20:59:53;;;;;;;;;6.75;6.75;;;;;20.37;42.66;102903.94;4920035;28;45347;-72
2023/12/18 21:02:19;;;;;;;;;7.50;7.50;;;;;20.38;42.43;102908.25;4920105;28;45256;-74
2023/12/18 21:04:44;;;;;;;;;6.50;6.00;;;;;20.31;42.37;102894.66;4919174;28;48284;-74
2023/12/18 21:07:09;;;;;;;;;9.50;8.00;;;;;20.35;42.77;102903.22;4920492;28;45363;-75
2023/12/18 21:09:34;;;;;;;;;10.67;8.33;;;;;20.37;42.57;102910.06;4920219;28;46586;-74
2023/12/18 21:12:00;;;;;;;;;9.33;7.67;;;;;20.38;42.46;102918.81;4920511;28;45473;-73
2023/12/18 21:14:25;;;;;;;;;6.67;6.33;;;;;20.37;42.53;102912.72;4920240;28;46222;-74
2023/12/18 21:16:50;;;;;;;;;7.75;7.75;;;;;20.38;42.54;102910.88;4919847;28;49418;-72
2023/12/18 21:19:16;;;;;;;;;8.25;7.75;;;;;20.37;42.44;102904.78;4920483;28;45322;-72
2023/12/18 21:21:42;;;;;;;;;8.50;8.00;;;;;20.36;42.23;102902.25;4920386;28;45406;-72
2023/12/18 21:24:07;;;;;;;;;7.67;7.67;;;;;20.38;42.51;102909.09;4920334;28;46273;-75
2023/12/18 21:26:33;;;;;;;;;7.50;7.50;;;;;20.34;42.65;102906.81;4920043;28;45438;-75
2023/12/18 21:28:58;;;;;;;;;7.00;7.00;;;;;20.38;42.65;102910.88;4920527;28;45549;-74
2023/12/18 21:31:24;;;;;;;;;9.25;6.75;;;;;20.38;42.34;102909.09;4920177;28;45503;-75
2023/12/18 21:33:49;;;;;;;;;6.67;6.33;;;;;20.38;42.70;102906.44;4919752;28;45976;-74
2023/12/18 21:36:16;;;;;;;;;7.50;7.50;;;;;20.38;42.41;102910.88;4919762;28;50278;-72
2023/12/18 21:38:41;;;;;;;;;7.00;7.00;;;;;20.36;42.75;102905.72;4920001;28;45333;-73
2023/12/18 21:41:07;;;;;;;;;7.00;7.00;;;;;20.39;42.34;102907.28;4908237;28;45609;-76
2023/12/18 21:43:32;;;;;;;;;6.75;6.75;;;;;20.33;42.79;102895.38;4919521;28;46291;-76
2023/12/18 21:45:58;;;;;;;;;8.50;7.00;;;;;20.34;42.63;102901.53;4919322;28;45408;-75
2023/12/18 21:48:24;;;;;;;;;6.67;6.67;;;;;20.35;42.66;102911.16;4920090;28;45375;-76
2023/12/18 21:50:49;;;;;;;;;7.75;6.75;;;;;19.91;42.73;102846.50;4920181;28;45399;-78
2023/12/18 21:53:18;;;;;;;;;7.25;7.00;;;;;20.33;42.87;102913.03;4919937;28;45380;-74
2023/12/18 21:55:43;;;;;;;;;7.00;5.67;;;;;20.33;42.92;102913.03;4919942;28;45252;-72
2023/12/18 21:58:09;;;;;;;;;7.00;7.00;;;;;20.34;42.93;102920.88;4919736;28;45258;-72
2023/12/18 22:00:35;;;;;;;;;7.67;7.67;;;;;20.23;42.84;102889.13;4913225;28;45537;-72
2023/12/18 22:03:00;;;;;;;;;7.33;6.33;;;;;20.36;43.21;102903.09;4917915;28;48106;-74
2023/12/18 22:05:25;;;;;;;;;7.00;7.00;;;;;20.39;42.91;102886.16;4918691;28;49178;-74
2023/12/18 22:07:50;;;;;;;;;6.00;5.00;;;;;20.37;43.06;102866.91;4919519;28;45212;-74
2023/12/18 22:10:16;;;;;;;;;8.50;7.25;;;;;20.42;43.06;102874.50;4918696;28;45470;-72
2023/12/18 22:12:42;;;;;;;;;5.00;5.00;;;;;20.43;43.06;102892.88;4919244;28;47437;-72
2023/12/18 22:15:08;;;;;;;;;6.00;5.75;;;;;20.44;43.22;102888.44;4919164;28;45348;-72
2023/12/18 22:17:33;;;;;;;;;5.50;5.50;;;;;20.42;43.17;102888.56;4919447;28;45493;-72
2023/12/18 22:20:00;;;;;;;;;6.67;6.33;;;;;20.46;43.33;102882.06;4919633;28;45319;-72
2023/12/18 22:22:25;;;;;;;;;6.00;6.00;;;;;20.47;43.10;102893.47;4919237;28;47373;-72
2023/12/18 22:24:50;;;;;;;;;6.50;5.00;;;;;20.43;43.26;102889.41;4918742;28;45472;-73
2023/12/18 22:27:17;;;;;;;;;6.00;6.00;;;;;20.49;43.31;102892.41;4919145;28;45357;-73
2023/12/18 22:29:42;;;;;;;;;4.25;4.25;;;;;20.48;43.41;102881.94;4919192;28;45287;-73
2023/12/18 22:32:08;;;;;;;;;5.50;5.50;;;;;20.50;43.25;102887.97;4919297;28;45377;-73
2023/12/18 22:34:33;;;;;;;;;6.25;6.00;;;;;20.51;43.15;102884.34;4919169;28;48263;-73
2023/12/18 22:36:59;;;;;;;;;9.33;8.67;;;;;20.38;43.16;102865.94;4919181;28;45496;-75
2023/12/18 22:39:24;;;;;;;;;6.75;5.00;;;;;20.48;43.18;102887.25;4919444;28;45922;-75
2023/12/18 22:41:49;;;;;;;;;8.00;7.25;;;;;20.52;43.43;102896.59;4918850;28;53139;-75
2023/12/18 22:44:15;;;;;;;;;6.00;5.00;;;;;20.36;43.22;102855.50;4918703;28;46438;-74
2023/12/18 22:46:40;;;;;;;;;7.00;6.00;;;;;20.52;43.38;102875.44;4919243;28;45431;-72
